createdAt,value
2023-03-20T00:01:08.373Z,10.40
2023-03-20T00:01:38.861Z,10.39
2023-03-20T00:02:35.749Z,10.39
2023-03-20T00:03:35.951Z,10.38
2023-03-20T00:04:35.882Z,10.38
2023-03-20T00:05:36.204Z,10.37
2023-03-20T00:06:35.004Z,10.35
2023-03-20T00:07:35.058Z,10.36
2023-03-20T00:08:35.271Z,10.35
2023-03-20T00:09:35.496Z,10.34
2023-03-20T00:10:36.133Z,10.34
2023-03-20T00:11:35.111Z,10.35
2023-03-20T00:12:35.247Z,10.33
2023-03-20T00:13:35.005Z,10.33
2023-03-20T00:14:35.110Z,10.32
2023-03-20T00:15:36.364Z,10.31
2023-03-20T00:16:35.597Z,10.34
2023-03-20T00:17:35.721Z,10.34
2023-03-20T00:18:35.509Z,10.33
2023-03-20T00:19:35.863Z,10.32
2023-03-20T00:20:36.307Z,10.33
2023-03-20T00:21:35.325Z,10.31
2023-03-20T00:22:35.143Z,10.30
2023-03-20T00:23:35.434Z,10.30
2023-03-20T00:24:35.243Z,10.31
2023-03-20T00:25:35.107Z,10.31
2023-03-20T00:26:35.070Z,10.30
2023-03-20T00:27:35.362Z,10.28
2023-03-20T00:29:35.394Z,10.30
2023-03-20T00:30:35.945Z,10.26
2023-03-20T00:31:36.488Z,10.27
2023-03-20T00:32:35.680Z,10.26
2023-03-20T00:33:35.407Z,10.26
2023-03-20T00:34:35.049Z,10.26
2023-03-20T00:35:36.439Z,10.26
2023-03-20T00:36:35.921Z,10.26
2023-03-20T00:37:35.564Z,10.27
2023-03-20T00:38:34.855Z,10.26
2023-03-20T00:39:35.129Z,10.26
2023-03-20T00:40:35.321Z,10.25
2023-03-20T00:41:35.409Z,10.25
2023-03-20T00:42:35.272Z,10.25
2023-03-20T00:43:35.399Z,10.25
2023-03-20T00:44:35.327Z,10.23
2023-03-20T00:45:36.083Z,10.20
2023-03-20T00:46:35.852Z,10.22
2023-03-20T00:47:36.270Z,10.20
2023-03-20T00:48:35.665Z,10.20
2023-03-20T00:49:35.067Z,10.20
2023-03-20T00:50:35.631Z,10.19
2023-03-20T00:51:35.339Z,10.18
2023-03-20T00:52:35.601Z,10.15
2023-03-20T00:53:35.522Z,10.15
2023-03-20T00:54:35.641Z,10.15
2023-03-20T00:55:36.549Z,10.16
2023-03-20T00:56:35.194Z,10.14
2023-03-20T00:57:34.733Z,10.13
2023-03-20T00:58:35.245Z,10.13
2023-03-20T00:59:35.089Z,10.12
2023-03-20T01:00:37.093Z,10.12
2023-03-20T01:01:39.640Z,10.12
2023-03-20T01:02:35.637Z,10.11
2023-03-20T01:03:49.419Z,10.09
2023-03-20T01:04:35.583Z,10.08
2023-03-20T01:05:35.904Z,10.10
2023-03-20T01:06:36.040Z,10.07
2023-03-20T01:07:35.942Z,10.07
2023-03-20T01:08:35.655Z,10.07
2023-03-20T01:09:35.252Z,10.07
2023-03-20T01:10:35.869Z,10.06
2023-03-20T01:11:35.723Z,10.05
2023-03-20T01:12:35.601Z,10.05
2023-03-20T01:13:35.156Z,10.04
2023-03-20T01:14:35.423Z,10.03
2023-03-20T01:15:36.078Z,10.03
2023-03-20T01:16:36.293Z,10.02
2023-03-20T01:17:35.272Z,10.04
2023-03-20T01:18:35.147Z,10.03
2023-03-20T01:19:35.026Z,10.03
2023-03-20T01:20:35.641Z,10.05
2023-03-20T01:21:35.451Z,10.02
2023-03-20T01:22:35.192Z,10.02
2023-03-20T01:23:35.155Z,10.01
2023-03-20T01:24:34.979Z,10.01
2023-03-20T01:25:35.388Z,10.00
2023-03-20T01:26:35.865Z,9.991
2023-03-20T01:27:35.366Z,9.989
2023-03-20T01:28:35.392Z,9.997
2023-03-20T01:29:34.858Z,9.991
2023-03-20T01:30:35.553Z,9.997
2023-03-20T01:31:36.164Z,10.01
2023-03-20T01:32:35.368Z,10
2023-03-20T01:33:36.327Z,10.00
2023-03-20T01:34:35.168Z,10.00
2023-03-20T01:35:35.777Z,9.984
2023-03-20T01:36:36.147Z,9.978
2023-03-20T01:37:35.514Z,9.966
2023-03-20T01:38:35.483Z,9.962
2023-03-20T01:39:36.237Z,9.958
2023-03-20T01:40:35.768Z,9.951
2023-03-20T01:41:35.873Z,9.942
2023-03-20T01:42:35.424Z,9.938
2023-03-20T01:43:35.208Z,9.941
2023-03-20T01:44:35.435Z,9.949
2023-03-20T01:45:36.335Z,9.954
2023-03-20T01:46:35.422Z,9.916
2023-03-20T01:47:35.423Z,9.914
2023-03-20T01:48:35.387Z,9.920
2023-03-20T01:49:35.720Z,9.923
2023-03-20T01:50:35.847Z,9.913
2023-03-20T01:51:36.148Z,9.920
2023-03-20T01:52:35.562Z,9.911
2023-03-20T01:53:35.484Z,9.911
2023-03-20T01:54:35.284Z,9.906
2023-03-20T01:55:35.631Z,9.895
2023-03-20T01:56:35.153Z,9.899
2023-03-20T01:57:34.848Z,9.890
2023-03-20T01:58:35.789Z,9.891
2023-03-20T02:00:06.142Z,9.883
2023-03-20T02:00:37.693Z,9.880
2023-03-20T02:01:36.428Z,9.901
2023-03-20T02:02:35.027Z,9.918
2023-03-20T02:03:34.959Z,9.913
2023-03-20T02:04:36.114Z,9.921
2023-03-20T02:05:35.413Z,9.931
2023-03-20T02:06:35.181Z,9.928
2023-03-20T02:07:35.221Z,9.926
2023-03-20T02:08:35.158Z,9.918
2023-03-20T02:09:34.908Z,9.921
2023-03-20T02:10:35.777Z,9.930
2023-03-20T02:11:35.061Z,9.904
2023-03-20T02:12:35.092Z,9.893
2023-03-20T02:13:35.017Z,9.904
2023-03-20T02:15:35.893Z,9.911
2023-03-20T02:16:35.614Z,9.896
2023-03-20T02:17:35.373Z,9.893
2023-03-20T02:18:35.246Z,9.873
2023-03-20T02:19:35.360Z,9.869
2023-03-20T02:20:35.913Z,9.863
2023-03-20T02:21:35.960Z,9.863
2023-03-20T02:22:35.402Z,9.856
2023-03-20T02:23:35.504Z,9.851
2023-03-20T02:24:35.564Z,9.845
2023-03-20T02:25:35.576Z,9.843
2023-03-20T02:26:35.574Z,9.831
2023-03-20T02:27:35.078Z,9.823
2023-03-20T02:28:35.189Z,9.835
2023-03-20T02:29:35.555Z,9.828
2023-03-20T02:30:36.429Z,9.829
2023-03-20T02:31:35.649Z,9.836
2023-03-20T02:32:36.019Z,9.828
2023-03-20T02:33:35.365Z,9.814
2023-03-20T02:34:35.470Z,9.805
2023-03-20T02:35:35.757Z,9.816
2023-03-20T02:36:36.015Z,9.808
2023-03-20T02:37:35.718Z,9.796
2023-03-20T02:38:35.681Z,9.784
2023-03-20T02:39:35.278Z,9.788
2023-03-20T02:40:35.150Z,9.776
2023-03-20T02:41:35.148Z,9.770
2023-03-20T02:42:35.157Z,9.773
2023-03-20T02:43:34.737Z,9.779
2023-03-20T02:44:35.192Z,9.751
2023-03-20T02:45:35.519Z,9.733
2023-03-20T02:46:36.216Z,9.725
2023-03-20T02:47:35.728Z,9.718
2023-03-20T02:48:35.309Z,9.718
2023-03-20T02:49:35.695Z,9.731
2023-03-20T02:50:36.610Z,9.736
2023-03-20T02:51:35.898Z,9.726
2023-03-20T02:52:35.756Z,9.721
2023-03-20T02:53:35.286Z,9.706
2023-03-20T02:54:35.104Z,9.711
2023-03-20T02:55:35.525Z,9.694
2023-03-20T02:56:36.136Z,9.711
2023-03-20T02:57:35.531Z,9.685
2023-03-20T02:58:34.893Z,9.682
2023-03-20T02:59:35.969Z,9.668
2023-03-20T03:00:36.131Z,9.642
2023-03-20T03:01:36.304Z,9.607
2023-03-20T03:02:35.345Z,9.597
2023-03-20T03:03:35.176Z,9.595
2023-03-20T03:04:35.296Z,9.582
2023-03-20T03:05:36.197Z,9.588
2023-03-20T03:06:35.810Z,9.571
2023-03-20T03:07:35.773Z,9.581
2023-03-20T03:08:35.092Z,9.558
2023-03-20T03:09:35.182Z,9.564
2023-03-20T03:10:35.332Z,9.558
2023-03-20T03:11:35.738Z,9.548
2023-03-20T03:12:36.050Z,9.541
2023-03-20T03:13:34.968Z,9.524
2023-03-20T03:14:36.266Z,9.510
2023-03-20T03:15:35.976Z,9.491
2023-03-20T03:16:35.334Z,9.493
2023-03-20T03:17:35.616Z,9.498
2023-03-20T03:18:43.894Z,9.488
2023-03-20T03:19:35.748Z,9.475
2023-03-20T03:20:35.833Z,9.486
2023-03-20T03:21:35.932Z,9.456
2023-03-20T03:22:43.528Z,9.435
2023-03-20T03:23:35.582Z,9.436
2023-03-20T03:24:53.440Z,9.416
2023-03-20T03:25:35.854Z,9.413
2023-03-20T03:26:36.022Z,9.426
2023-03-20T03:27:35.575Z,9.435
2023-03-20T03:28:35.490Z,9.420
2023-03-20T03:29:35.648Z,9.418
2023-03-20T03:30:35.791Z,9.403
2023-03-20T03:31:35.614Z,9.385
2023-03-20T03:32:36.133Z,9.345
2023-03-20T03:33:35.151Z,9.351
2023-03-20T03:34:35.080Z,9.368
2023-03-20T03:35:35.235Z,9.380
2023-03-20T03:36:35.454Z,9.356
2023-03-20T03:37:35.099Z,9.328
2023-03-20T03:38:35.048Z,9.289
2023-03-20T03:39:34.963Z,9.288
2023-03-20T03:41:35.957Z,9.270
2023-03-20T03:42:35.849Z,9.295
2023-03-20T03:43:35.455Z,9.313
2023-03-20T03:44:34.903Z,9.303
2023-03-20T03:45:37.156Z,9.293
2023-03-20T03:46:35.752Z,9.278
2023-03-20T03:47:35.695Z,9.251
2023-03-20T03:48:35.687Z,9.243
2023-03-20T03:49:35.649Z,9.231
2023-03-20T03:50:35.486Z,9.210
2023-03-20T03:51:36.030Z,9.173
2023-03-20T03:52:34.912Z,9.173
2023-03-20T03:53:35.623Z,9.171
2023-03-20T03:54:35.447Z,9.180
2023-03-20T03:55:36.338Z,9.194
2023-03-20T03:56:36.150Z,9.186
2023-03-20T03:57:35.536Z,9.191
2023-03-20T03:58:35.239Z,9.168
2023-03-20T03:59:35.379Z,9.145
2023-03-20T04:00:37.337Z,9.145
2023-03-20T04:01:36.281Z,9.159
2023-03-20T04:02:36.110Z,9.135
2023-03-20T04:03:35.695Z,9.119
2023-03-20T04:04:36.157Z,9.130
2023-03-20T04:05:35.843Z,9.128
2023-03-20T04:06:35.708Z,9.114
2023-03-20T04:07:36.073Z,9.069
2023-03-20T04:08:36.105Z,9.051
2023-03-20T04:09:35.549Z,9.048
2023-03-20T04:10:36.289Z,9.024
2023-03-20T04:11:36.600Z,9.010
2023-03-20T04:12:35.394Z,9.021
2023-03-20T04:13:35.575Z,9.018
2023-03-20T04:14:35.630Z,9.021
2023-03-20T04:15:36.630Z,9.023
2023-03-20T04:16:36.233Z,9.026
2023-03-20T04:17:36.772Z,9.026
2023-03-20T04:18:35.796Z,9.024
2023-03-20T04:19:35.288Z,9.016
2023-03-20T04:20:36.115Z,9.034
2023-03-20T04:21:36.257Z,9.045
2023-03-20T04:22:35.711Z,9.013
2023-03-20T04:23:35.864Z,9.005
2023-03-20T04:24:35.558Z,8.989
2023-03-20T04:25:36.068Z,8.984
2023-03-20T04:26:35.113Z,8.977
2023-03-20T04:27:35.504Z,8.975
2023-03-20T04:28:35.547Z,8.979
2023-03-20T04:29:37.003Z,8.965
2023-03-20T04:30:36.404Z,8.977
2023-03-20T04:31:35.686Z,8.975
2023-03-20T04:32:35.830Z,8.981
2023-03-20T04:33:36.039Z,8.998
2023-03-20T04:34:35.146Z,8.989
2023-03-20T04:35:35.914Z,8.989
2023-03-20T04:36:35.508Z,8.989
2023-03-20T04:37:35.547Z,9.001
2023-03-20T04:38:35.701Z,9
2023-03-20T04:39:35.614Z,9.001
2023-03-20T04:40:35.673Z,9.006
2023-03-20T04:41:36.119Z,9.020
2023-03-20T04:42:35.336Z,9.016
2023-03-20T04:43:35.575Z,9.026
2023-03-20T04:44:35.259Z,9.021
2023-03-20T04:45:35.751Z,8.998
2023-03-20T04:46:35.990Z,8.984
2023-03-20T04:47:35.507Z,8.958
2023-03-20T04:48:35.376Z,8.960
2023-03-20T04:49:34.942Z,8.956
2023-03-20T04:50:36.081Z,8.939
2023-03-20T04:51:35.853Z,8.914
2023-03-20T04:52:36.093Z,8.913
2023-03-20T04:53:35.621Z,8.911
2023-03-20T04:54:35.678Z,8.896
2023-03-20T04:55:36.078Z,8.868
2023-03-20T04:56:35.427Z,8.859
2023-03-20T04:57:35.925Z,8.841
2023-03-20T04:58:35.851Z,8.835
2023-03-20T04:59:35.881Z,8.836
2023-03-20T05:00:37.543Z,8.833
2023-03-20T05:01:35.830Z,8.836
2023-03-20T05:02:35.593Z,8.829
2023-03-20T05:03:37.834Z,8.788
2023-03-20T05:04:36.070Z,8.774
2023-03-20T05:05:35.886Z,8.776
2023-03-20T05:06:35.893Z,8.753
2023-03-20T05:07:36.392Z,8.720
2023-03-20T05:08:35.482Z,8.721
2023-03-20T05:09:35.614Z,8.739
2023-03-20T05:10:36.034Z,8.738
2023-03-20T05:11:35.699Z,8.736
2023-03-20T05:12:36.197Z,8.729
2023-03-20T05:13:35.695Z,8.703
2023-03-20T05:14:35.765Z,8.691
2023-03-20T05:15:36.408Z,8.680
2023-03-20T05:16:36.111Z,8.666
2023-03-20T05:17:35.544Z,8.668
2023-03-20T05:18:35.561Z,8.641
2023-03-20T05:19:36.008Z,8.635
2023-03-20T05:20:36.407Z,8.621
2023-03-20T05:21:35.551Z,8.574
2023-03-20T05:22:36.542Z,8.573
2023-03-20T05:23:35.875Z,8.576
2023-03-20T05:24:35.750Z,8.550
2023-03-20T05:25:36.047Z,8.526
2023-03-20T05:26:35.770Z,8.511
2023-03-20T05:27:35.749Z,8.505
2023-03-20T05:28:35.611Z,8.498
2023-03-20T05:29:35.868Z,8.503
2023-03-20T05:30:37.427Z,8.498
2023-03-20T05:31:35.424Z,8.493
2023-03-20T05:32:35.738Z,8.471
2023-03-20T05:33:38.072Z,8.453
2023-03-20T05:34:35.841Z,8.454
2023-03-20T05:35:36.894Z,8.431
2023-03-20T05:36:35.688Z,8.408
2023-03-20T05:37:35.849Z,8.393
2023-03-20T05:38:35.807Z,8.401
2023-03-20T05:39:40.923Z,8.399
2023-03-20T05:40:36.626Z,8.398
2023-03-20T05:41:36.382Z,8.390
2023-03-20T05:42:35.562Z,8.381
2023-03-20T05:43:35.173Z,8.378
2023-03-20T05:44:35.220Z,8.351
2023-03-20T05:45:35.968Z,8.333
2023-03-20T05:46:35.860Z,8.316
2023-03-20T05:47:40.394Z,8.289
2023-03-20T05:48:36.042Z,8.273
2023-03-20T05:49:36.118Z,8.266
2023-03-20T05:50:35.786Z,8.253
2023-03-20T05:51:35.854Z,8.265
2023-03-20T05:52:35.833Z,8.231
2023-03-20T05:53:36.318Z,8.218
2023-03-20T05:54:35.716Z,8.225
2023-03-20T05:55:36.621Z,8.238
2023-03-20T05:56:36.802Z,8.260
2023-03-20T05:57:36.584Z,8.274
2023-03-20T05:58:35.410Z,8.260
2023-03-20T05:59:35.888Z,8.268
2023-03-20T06:00:37.844Z,8.289
2023-03-20T06:01:50.479Z,8.298
2023-03-20T06:02:35.920Z,8.302
2023-03-20T06:03:36.800Z,8.295
2023-03-20T06:04:35.804Z,8.282
2023-03-20T06:05:36.296Z,8.263
2023-03-20T06:06:36.219Z,8.25
2023-03-20T06:07:36.063Z,8.227
2023-03-20T06:08:35.802Z,8.231
2023-03-20T06:09:36.450Z,8.239
2023-03-20T06:10:36.962Z,8.231
2023-03-20T06:11:37.773Z,8.251
2023-03-20T06:12:37.161Z,8.227
2023-03-20T06:13:36.012Z,8.236
2023-03-20T06:14:35.640Z,8.235
2023-03-20T06:15:36.593Z,8.270
2023-03-20T06:16:37.034Z,8.265
2023-03-20T06:17:35.733Z,8.248
2023-03-20T06:18:37.632Z,8.248
2023-03-20T06:19:44.284Z,8.25
2023-03-20T06:20:36.056Z,8.237
2023-03-20T06:21:35.987Z,8.222
2023-03-20T06:22:35.880Z,8.229
2023-03-20T06:23:36.394Z,8.229
2023-03-20T06:24:36.033Z,8.204
2023-03-20T06:25:37.042Z,8.180
2023-03-20T06:26:36.331Z,8.215
2023-03-20T06:27:36.337Z,8.206
2023-03-20T06:28:36.072Z,8.229
2023-03-20T06:29:36.118Z,8.226
2023-03-20T06:30:36.598Z,8.213
2023-03-20T06:31:36.509Z,8.204
2023-03-20T06:32:36.710Z,8.189
2023-03-20T06:33:37.905Z,8.218
2023-03-20T06:34:37.625Z,8.253
2023-03-20T06:35:37.283Z,8.246
2023-03-20T06:36:36.310Z,8.270
2023-03-20T06:37:49.934Z,8.271
2023-03-20T06:38:36.262Z,8.271
2023-03-20T06:39:35.797Z,8.266
2023-03-20T06:40:36.864Z,8.293
2023-03-20T06:41:48.052Z,8.310
2023-03-20T06:42:35.876Z,8.329
2023-03-20T06:43:35.779Z,8.331
2023-03-20T06:44:36.377Z,8.331
2023-03-20T06:45:36.996Z,8.341
2023-03-20T06:46:35.472Z,8.364
2023-03-20T06:47:35.978Z,8.388
2023-03-20T06:48:35.730Z,8.401
2023-03-20T06:49:35.985Z,8.425
2023-03-20T06:50:35.933Z,8.443
2023-03-20T06:51:36.731Z,8.443
2023-03-20T06:52:37.986Z,8.443
2023-03-20T06:53:37.030Z,8.438
2023-03-20T06:54:37.023Z,8.439
2023-03-20T06:55:38.201Z,8.448
2023-03-20T06:56:36.343Z,8.449
2023-03-20T06:57:36.381Z,8.481
2023-03-20T06:58:35.993Z,8.466
2023-03-20T06:59:35.798Z,8.501
2023-03-20T07:00:39.486Z,8.528
2023-03-20T07:01:37.714Z,8.539
2023-03-20T07:02:37.522Z,8.551
2023-03-20T07:03:36.236Z,8.543
2023-03-20T07:04:36.342Z,8.569
2023-03-20T07:05:37.013Z,8.585
2023-03-20T07:06:36.375Z,8.609
2023-03-20T07:07:36.106Z,8.601
2023-03-20T07:08:35.740Z,8.593
2023-03-20T07:09:36.835Z,8.604
2023-03-20T07:10:36.877Z,8.571
2023-03-20T07:11:36.735Z,8.581
2023-03-20T07:12:36.278Z,8.609
2023-03-20T07:13:35.679Z,8.645
2023-03-20T07:14:36.159Z,8.659
2023-03-20T07:15:35.368Z,8.664
2023-03-20T07:16:36.113Z,8.676
2023-03-20T07:17:36.340Z,8.689
2023-03-20T07:18:36.260Z,8.701
2023-03-20T07:19:38.037Z,8.708
2023-03-20T07:20:35.960Z,8.744
2023-03-20T07:21:36.503Z,8.739
2023-03-20T07:22:36.017Z,8.741
2023-03-20T07:23:36.226Z,8.736
2023-03-20T07:24:36.119Z,8.739
2023-03-20T07:26:14.596Z,8.774
2023-03-20T07:26:36.831Z,8.810
2023-03-20T07:27:36.841Z,8.824
2023-03-20T07:28:36.448Z,8.805
2023-03-20T07:29:36.734Z,8.816
2023-03-20T07:30:38.245Z,8.816
2023-03-20T07:31:36.397Z,8.826
2023-03-20T07:32:37.902Z,8.859
2023-03-20T07:33:37.351Z,8.852
2023-03-20T07:34:37.036Z,8.857
2023-03-20T07:35:36.496Z,8.880
2023-03-20T07:36:37.014Z,8.871
2023-03-20T07:37:36.352Z,8.901
2023-03-20T07:38:35.893Z,8.931
2023-03-20T07:39:36.919Z,8.925
2023-03-20T07:40:37.256Z,8.914
2023-03-20T07:41:36.426Z,8.906
2023-03-20T07:42:36.293Z,8.894
2023-03-20T07:43:36.424Z,8.883
2023-03-20T07:44:36.391Z,8.901
2023-03-20T07:45:37.370Z,8.869
2023-03-20T07:46:36.683Z,8.905
2023-03-20T07:47:37.408Z,8.956
2023-03-20T07:48:36.681Z,8.944
2023-03-20T07:49:36.730Z,8.963
2023-03-20T07:50:37.802Z,8.975
2023-03-20T07:51:36.604Z,8.973
2023-03-20T07:52:36.352Z,8.976
2023-03-20T07:53:36.502Z,8.935
2023-03-20T07:54:36.926Z,8.941
2023-03-20T07:55:38.337Z,8.949
2023-03-20T07:56:36.376Z,8.970
2023-03-20T07:57:36.509Z,8.993
2023-03-20T07:58:41.974Z,8.996
2023-03-20T07:59:36.775Z,8.998
2023-03-20T08:00:41.029Z,9.020
2023-03-20T08:01:37.383Z,9.005
2023-03-20T08:02:36.284Z,9.006
2023-03-20T08:03:37.010Z,9.028
2023-03-20T08:04:36.318Z,9.024
2023-03-20T08:05:37.705Z,8.996
2023-03-20T08:06:36.530Z,9
2023-03-20T08:07:37.328Z,9.058
2023-03-20T08:08:37.320Z,9.060
2023-03-20T08:09:36.883Z,9.085
2023-03-20T08:10:37.589Z,9.061
2023-03-20T08:11:37.267Z,9.063
2023-03-20T08:12:36.284Z,9.109
2023-03-20T08:13:36.926Z,9.113
2023-03-20T08:14:37.206Z,9.121
2023-03-20T08:15:37.795Z,9.125
2023-03-20T08:16:37.325Z,9.114
2023-03-20T08:17:36.617Z,9.086
2023-03-20T08:18:36.569Z,9.103
2023-03-20T08:19:36.317Z,9.091
2023-03-20T08:20:35.921Z,9.085
2023-03-20T08:21:36.374Z,9.111
2023-03-20T08:22:36.466Z,9.106
2023-03-20T08:23:36.079Z,9.104
2023-03-20T08:24:49.698Z,9.074
2023-03-20T08:25:36.649Z,9.090
2023-03-20T08:26:36.125Z,9.100
2023-03-20T08:27:36.104Z,9.078
2023-03-20T08:28:47.229Z,9.081
2023-03-20T08:29:35.909Z,9.073
2023-03-20T08:30:36.310Z,9.083
2023-03-20T08:31:36.244Z,9.061
2023-03-20T08:32:35.805Z,9.071
2023-03-20T08:33:36.380Z,9.076
2023-03-20T08:34:37.820Z,9.100
2023-03-20T08:35:59.743Z,9.141
2023-03-20T08:36:36.230Z,9.123
2023-03-20T08:37:36.000Z,9.146
2023-03-20T08:38:36.038Z,9.133
2023-03-20T08:39:36.021Z,9.104
2023-03-20T08:40:40.878Z,9.113
2023-03-20T08:41:36.686Z,9.149
2023-03-20T08:42:54.968Z,9.140
2023-03-20T08:43:36.590Z,9.130
2023-03-20T08:44:36.869Z,9.153
2023-03-20T08:45:36.908Z,9.148
2023-03-20T08:46:44.442Z,9.141
2023-03-20T08:47:36.043Z,9.164
2023-03-20T08:48:58.116Z,9.206
2023-03-20T08:49:36.825Z,9.208
2023-03-20T08:50:44.987Z,9.210
2023-03-20T08:51:35.587Z,9.223
2023-03-20T08:52:36.665Z,9.213
2023-03-20T08:53:37.071Z,9.239
2023-03-20T08:54:36.045Z,9.241
2023-03-20T08:55:36.838Z,9.203
2023-03-20T08:56:36.937Z,9.211
2023-03-20T08:57:36.967Z,9.201
2023-03-20T08:58:36.779Z,9.231
2023-03-20T08:59:36.724Z,9.233
2023-03-20T09:00:38.159Z,9.260
2023-03-20T09:01:48.716Z,9.253
2023-03-20T09:02:37.212Z,9.274
2023-03-20T09:03:36.555Z,9.266
2023-03-20T09:04:36.068Z,9.268
2023-03-20T09:05:36.691Z,9.289
2023-03-20T09:06:36.661Z,9.300
2023-03-20T09:07:36.649Z,9.319
2023-03-20T09:08:36.017Z,9.321
2023-03-20T09:09:36.549Z,9.326
2023-03-20T09:10:36.870Z,9.345
2023-03-20T09:11:36.446Z,9.369
2023-03-20T09:12:36.024Z,9.353
2023-03-20T09:13:41.623Z,9.343
2023-03-20T09:14:36.223Z,9.350
2023-03-20T09:15:37.501Z,9.368
2023-03-20T09:16:36.392Z,9.387
2023-03-20T09:17:36.769Z,9.449
2023-03-20T09:18:36.558Z,9.425
2023-03-20T09:19:35.924Z,9.421
2023-03-20T09:20:36.744Z,9.441
2023-03-20T09:21:37.056Z,9.407
2023-03-20T09:22:36.250Z,9.403
2023-03-20T09:23:36.841Z,9.448
2023-03-20T09:24:36.750Z,9.483
2023-03-20T09:25:37.841Z,9.488
2023-03-20T09:26:36.493Z,9.475
2023-03-20T09:27:36.720Z,9.473
2023-03-20T09:28:36.424Z,9.483
2023-03-20T09:29:36.894Z,9.468
2023-03-20T09:30:37.724Z,9.484
2023-03-20T09:31:36.650Z,9.494
2023-03-20T09:32:36.707Z,9.513
2023-03-20T09:33:36.275Z,9.534
2023-03-20T09:34:36.348Z,9.563
2023-03-20T09:35:36.802Z,9.598
2023-03-20T09:36:36.874Z,9.621
2023-03-20T09:37:37.314Z,9.633
2023-03-20T09:38:36.365Z,9.623
2023-03-20T09:39:37.064Z,9.598
2023-03-20T09:40:37.229Z,9.609
2023-03-20T09:41:52.820Z,9.645
2023-03-20T09:42:37.514Z,9.675
2023-03-20T09:43:37.155Z,9.670
2023-03-20T09:44:36.523Z,9.675
2023-03-20T09:45:37.300Z,9.649
2023-03-20T09:46:37.008Z,9.628
2023-03-20T09:47:37.125Z,9.645
2023-03-20T09:48:37.605Z,9.710
2023-03-20T09:49:37.523Z,9.694
2023-03-20T09:50:38.465Z,9.706
2023-03-20T09:51:37.588Z,9.748
2023-03-20T09:52:37.365Z,9.743
2023-03-20T09:53:37.328Z,9.741
2023-03-20T09:54:51.019Z,9.739
2023-03-20T09:55:37.798Z,9.760
2023-03-20T09:56:37.476Z,9.766
2023-03-20T09:57:38.428Z,9.781
2023-03-20T09:58:37.800Z,9.796
2023-03-20T09:59:37.953Z,9.829
2023-03-20T10:01:39.839Z,9.819
2023-03-20T10:02:38.113Z,9.808
2023-03-20T10:03:37.141Z,9.813
2023-03-20T10:04:37.720Z,9.850
2023-03-20T10:05:38.601Z,9.826
2023-03-20T10:06:37.954Z,9.800
2023-03-20T10:07:37.239Z,9.856
2023-03-20T10:08:37.942Z,9.861
2023-03-20T10:09:38.948Z,9.810
2023-03-20T10:10:38.699Z,9.783
2023-03-20T10:11:37.909Z,9.786
2023-03-20T10:12:38.543Z,9.796
2023-03-20T10:13:37.630Z,9.819
2023-03-20T10:14:39.597Z,9.836
2023-03-20T10:15:39.199Z,9.845
2023-03-20T10:16:37.678Z,9.861
2023-03-20T10:17:37.935Z,9.824
2023-03-20T10:18:38.519Z,9.810
2023-03-20T10:19:37.979Z,9.818
2023-03-20T10:20:38.664Z,9.814
2023-03-20T10:21:38.003Z,9.806
2023-03-20T10:22:37.424Z,9.816
2023-03-20T10:23:38.058Z,9.835
2023-03-20T10:24:37.584Z,9.828
2023-03-20T10:25:37.678Z,9.840
2023-03-20T10:26:37.709Z,9.840
2023-03-20T10:27:37.792Z,9.858
2023-03-20T10:28:37.621Z,9.898
2023-03-20T10:29:37.968Z,9.923
2023-03-20T10:30:39.071Z,9.909
2023-03-20T10:31:43.283Z,9.920
2023-03-20T10:32:38.050Z,9.895
2023-03-20T10:33:37.692Z,9.868
2023-03-20T10:34:38.095Z,9.878
2023-03-20T10:35:38.038Z,9.907
2023-03-20T10:36:37.781Z,9.964
2023-03-20T10:37:37.254Z,9.936
2023-03-20T10:38:37.438Z,9.966
2023-03-20T10:39:37.666Z,9.961
2023-03-20T10:40:38.448Z,9.948
2023-03-20T10:41:45.887Z,9.973
2023-03-20T10:42:37.493Z,9.967
2023-03-20T10:43:39.901Z,9.972
2023-03-20T10:44:37.086Z,9.945
2023-03-20T10:45:38.068Z,9.961
2023-03-20T10:46:37.657Z,9.958
2023-03-20T10:47:52.976Z,9.968
2023-03-20T10:48:38.534Z,9.955
2023-03-20T10:49:37.651Z,9.977
2023-03-20T10:50:38.282Z,9.977
2023-03-20T10:51:37.508Z,9.951
2023-03-20T10:52:37.478Z,9.984
2023-03-20T10:53:51.604Z,10
2023-03-20T10:54:38.056Z,10.01
2023-03-20T10:55:38.292Z,10.02
2023-03-20T10:56:38.564Z,10.01
2023-03-20T10:57:39.643Z,10.02
2023-03-20T10:58:40.021Z,10.01
2023-03-20T10:59:41.254Z,10.01
2023-03-20T11:01:57.804Z,10
2023-03-20T11:02:38.618Z,9.970
2023-03-20T11:03:56.848Z,9.966
2023-03-20T11:04:38.798Z,10.00
2023-03-20T11:06:08.982Z,9.963
2023-03-20T11:06:37.744Z,9.936
2023-03-20T11:07:56.127Z,9.926
2023-03-20T11:08:38.147Z,9.983
2023-03-20T11:09:57.574Z,9.961
2023-03-20T11:10:39.708Z,10.00
2023-03-20T11:11:44.542Z,9.989
2023-03-20T11:12:39.224Z,9.973
2023-03-20T11:14:01.104Z,9.979
2023-03-20T11:14:38.158Z,10.00
2023-03-20T11:15:46.523Z,10.01
2023-03-20T11:16:37.877Z,10.01
2023-03-20T11:17:46.457Z,10.02
2023-03-20T11:18:38.149Z,10.06
2023-03-20T11:19:52.100Z,10.04
2023-03-20T11:20:38.486Z,10.01
2023-03-20T11:21:38.598Z,10.02
2023-03-20T11:22:37.988Z,10.02
2023-03-20T11:23:37.649Z,9.979
2023-03-20T11:24:37.493Z,9.970
2023-03-20T11:25:38.397Z,9.979
2023-03-20T11:26:37.685Z,10.00
2023-03-20T11:27:51.766Z,10.00
2023-03-20T11:28:37.630Z,10.01
2023-03-20T11:29:38.075Z,10.03
2023-03-20T11:30:37.773Z,10.02
2023-03-20T11:31:37.973Z,10.01
2023-03-20T11:32:37.198Z,10.03
2023-03-20T11:33:56.376Z,10.05
2023-03-20T11:34:37.372Z,10.04
2023-03-20T11:35:37.695Z,10.06
2023-03-20T11:36:41.471Z,10.07
2023-03-20T11:37:37.447Z,10.09
2023-03-20T11:38:37.618Z,10.12
2023-03-20T11:39:37.174Z,10.15
2023-03-20T11:40:38.024Z,10.15
2023-03-20T11:41:40.676Z,10.09
2023-03-20T11:42:37.661Z,10.05
2023-03-20T11:43:37.117Z,10.06
2023-03-20T11:44:37.335Z,10.08
2023-03-20T11:45:37.394Z,10.09
2023-03-20T11:46:37.511Z,10.14
2023-03-20T11:47:37.885Z,10.18
2023-03-20T11:48:37.312Z,10.18
2023-03-20T11:49:36.924Z,10.18
2023-03-20T11:50:38.443Z,10.22
2023-03-20T11:51:38.097Z,10.22
2023-03-20T11:52:37.354Z,10.18
2023-03-20T11:53:37.827Z,10.21
2023-03-20T11:54:37.908Z,10.25
2023-03-20T11:55:38.537Z,10.26
2023-03-20T11:56:37.600Z,10.23
2023-03-20T11:57:37.446Z,10.18
2023-03-20T11:58:37.587Z,10.20
2023-03-20T11:59:37.193Z,10.21
2023-03-20T12:00:38.994Z,10.18
2023-03-20T12:02:36.964Z,10.20
2023-03-20T12:03:37.982Z,10.21
2023-03-20T12:04:37.550Z,10.23
2023-03-20T12:05:38.022Z,10.26
2023-03-20T12:06:37.293Z,10.22
2023-03-20T12:07:37.341Z,10.24
2023-03-20T12:08:37.770Z,10.25
2023-03-20T12:09:37.614Z,10.27
2023-03-20T12:10:38.265Z,10.27
2023-03-20T12:11:37.954Z,10.25
2023-03-20T12:12:37.782Z,10.23
2023-03-20T12:13:37.512Z,10.23
2023-03-20T12:14:37.272Z,10.21
2023-03-20T12:15:37.562Z,10.23
2023-03-20T12:16:38.076Z,10.22
2023-03-20T12:17:37.361Z,10.23
2023-03-20T12:18:37.210Z,10.23
2023-03-20T12:19:36.775Z,10.24
2023-03-20T12:20:38.119Z,10.23
2023-03-20T12:21:37.132Z,10.21
2023-03-20T12:22:37.314Z,10.22
2023-03-20T12:23:37.685Z,10.19
2023-03-20T12:24:37.338Z,10.21
2023-03-20T12:25:37.557Z,10.20
2023-03-20T12:26:37.126Z,10.19
2023-03-20T12:27:37.138Z,10.20
2023-03-20T12:28:37.211Z,10.22
2023-03-20T12:29:36.999Z,10.23
2023-03-20T12:30:37.335Z,10.29
2023-03-20T12:31:38.176Z,10.28
2023-03-20T12:32:37.529Z,10.29
2023-03-20T12:33:37.041Z,10.34
2023-03-20T12:34:39.156Z,10.35
2023-03-20T12:35:39.712Z,10.38
2023-03-20T12:36:38.949Z,10.38
2023-03-20T12:37:37.142Z,10.35
2023-03-20T12:38:37.359Z,10.35
2023-03-20T12:39:37.982Z,10.31
2023-03-20T12:40:37.822Z,10.35
2023-03-20T12:41:38.785Z,10.36
2023-03-20T12:42:38.146Z,10.38
2023-03-20T12:43:37.825Z,10.37
2023-03-20T12:44:38.590Z,10.38
2023-03-20T12:45:38.723Z,10.38
2023-03-20T12:46:38.067Z,10.37
2023-03-20T12:47:37.484Z,10.33
2023-03-20T12:48:37.622Z,10.31
2023-03-20T12:49:37.616Z,10.28
2023-03-20T12:50:43.331Z,10.31
2023-03-20T12:51:38.723Z,10.27
2023-03-20T12:52:42.681Z,10.30
2023-03-20T12:53:37.646Z,10.25
2023-03-20T12:54:37.246Z,10.27
2023-03-20T12:55:37.680Z,10.31
2023-03-20T12:56:37.735Z,10.33
2023-03-20T12:57:37.998Z,10.35
2023-03-20T12:58:37.337Z,10.36
2023-03-20T12:59:37.909Z,10.36